createdAt,value
2022-08-03T00:01:37.305Z,9.80
2022-08-03T00:04:39.687Z,8.93
2022-08-03T00:07:42.081Z,11.48
2022-08-03T00:10:44.659Z,9.85
2022-08-03T00:13:47.129Z,12.73
2022-08-03T00:16:49.482Z,11.73
2022-08-03T00:19:51.843Z,11.40
2022-08-03T00:22:54.347Z,10.85
2022-08-03T00:25:57.340Z,12.23
2022-08-03T00:28:59.813Z,10.45
2022-08-03T00:32:02.195Z,10.20
2022-08-03T00:35:08.083Z,10.63
2022-08-03T00:38:11.557Z,10.25
2022-08-03T00:41:15.691Z,12.60
2022-08-03T00:44:18.198Z,11.90
2022-08-03T00:47:20.607Z,12.87
2022-08-03T00:50:24.686Z,14.80
2022-08-03T00:53:27.925Z,11.27
2022-08-03T00:56:30.423Z,10.88
2022-08-03T00:59:32.840Z,12.80
2022-08-03T01:02:35.981Z,12.23
2022-08-03T01:06:07.473Z,10.00
2022-08-03T01:09:16.847Z,11.95
2022-08-03T01:12:33.204Z,14.57
2022-08-03T01:15:49.880Z,9.50
2022-08-03T01:19:16.155Z,9.80
2022-08-03T01:22:37.075Z,10.95
2022-08-03T01:25:54.430Z,11.43
2022-08-03T01:29:08.974Z,13.32
2022-08-03T01:33:02.687Z,12.52
2022-08-03T01:35:43.118Z,13.37
2022-08-03T01:38:52.183Z,10.75
2022-08-03T01:42:00.887Z,10.65
2022-08-03T01:45:05.297Z,10.52
2022-08-03T01:48:09.316Z,10.88
2022-08-03T01:51:13.510Z,10.07
2022-08-03T01:54:17.498Z,11.23
2022-08-03T01:57:22.510Z,11.48
2022-08-03T02:00:26.887Z,11.65
2022-08-03T02:03:32.367Z,11.77
2022-08-03T02:07:00.517Z,12.30
2022-08-03T02:10:01.555Z,13.00
2022-08-03T02:13:08.418Z,10.57
2022-08-03T02:16:12.815Z,11.30
2022-08-03T02:19:17.393Z,11.15
2022-08-03T02:22:22.067Z,14.23
2022-08-03T02:25:25.094Z,10.82
2022-08-03T02:28:35.804Z,11.98
2022-08-03T02:31:39.826Z,12.07
2022-08-03T02:34:47.545Z,10.48
2022-08-03T02:37:58.086Z,12.90
2022-08-03T02:41:07.314Z,12.75
2022-08-03T02:44:12.144Z,18.02
2022-08-03T02:47:16.992Z,11.52
2022-08-03T02:50:21.983Z,12.38
2022-08-03T02:53:26.716Z,13.13
2022-08-03T02:56:30.205Z,12.23
2022-08-03T02:59:34.283Z,12.23
2022-08-03T03:02:38.040Z,11.85
2022-08-03T03:05:55.075Z,14.15
2022-08-03T03:09:00.464Z,11.60
2022-08-03T03:12:04.205Z,16.45
2022-08-03T03:15:06.990Z,13.90
2022-08-03T03:18:10.795Z,14.15
2022-08-03T03:21:16.442Z,15.32
2022-08-03T03:24:21.107Z,14.73
2022-08-03T03:27:23.704Z,13.40
2022-08-03T03:30:27.782Z,13.55
2022-08-03T03:33:30.333Z,12.98
2022-08-03T03:36:32.777Z,13.98
2022-08-03T03:39:36.479Z,12.33
2022-08-03T03:42:38.996Z,15.27
2022-08-03T03:45:43.059Z,17.73
2022-08-03T03:48:45.579Z,15.30
2022-08-03T03:51:48.079Z,19.33
2022-08-03T03:54:50.501Z,13.13
2022-08-03T03:57:52.948Z,14.48
2022-08-03T04:00:55.811Z,14.75
2022-08-03T04:03:58.911Z,17.23
2022-08-03T04:07:19.820Z,12.85
2022-08-03T04:10:46.582Z,13.23
2022-08-03T04:13:57.080Z,19.77
2022-08-03T04:17:08.808Z,15.10
2022-08-03T04:20:14.054Z,16.15
2022-08-03T04:23:19.887Z,17.52
2022-08-03T04:26:24.563Z,18.20
2022-08-03T04:29:29.075Z,31.13
2022-08-03T04:32:32.114Z,27.20
2022-08-03T04:36:01.926Z,18.20
2022-08-03T04:39:16.924Z,17.90
2022-08-03T04:42:22.477Z,16.20
2022-08-03T04:45:25.925Z,15.23
2022-08-03T04:48:29.204Z,24.65
2022-08-03T04:51:32.503Z,15.50
2022-08-03T04:54:50.744Z,17.05
2022-08-03T04:57:53.632Z,14.47
2022-08-03T05:00:56.034Z,20.40
2022-08-03T05:03:58.606Z,16.70
2022-08-03T05:07:00.972Z,13.65
2022-08-03T05:10:16.258Z,15.45
2022-08-03T05:13:19.307Z,18.50
2022-08-03T05:16:21.796Z,16.38
2022-08-03T05:19:25.057Z,14.88
2022-08-03T05:22:27.545Z,14.75
2022-08-03T05:25:30.594Z,17.08
2022-08-03T05:28:33.309Z,17.87
2022-08-03T05:31:35.708Z,16.17
2022-08-03T05:34:38.165Z,15.48
2022-08-03T05:37:40.703Z,17.48
2022-08-03T05:41:22.260Z,14.82
2022-08-03T05:44:20.846Z,15.40
2022-08-03T05:47:23.256Z,14.05
2022-08-03T05:50:25.969Z,13.50
2022-08-03T05:53:28.350Z,12.63
2022-08-03T05:56:30.819Z,12.88
2022-08-03T05:59:38.517Z,13.77
2022-08-03T06:02:41.808Z,16.52
2022-08-03T06:05:58.322Z,16.10
2022-08-03T06:09:02.901Z,13.80
2022-08-03T06:12:05.549Z,11.40
2022-08-03T06:15:11.566Z,12.87
2022-08-03T06:18:14.271Z,17.27
2022-08-03T06:21:16.692Z,16.23
2022-08-03T06:24:19.088Z,12.25
2022-08-03T06:27:36.610Z,12.70
2022-08-03T06:30:40.858Z,17.63
2022-08-03T06:34:31.268Z,15.18
2022-08-03T06:37:05.896Z,13.75
2022-08-03T06:40:08.889Z,13.95
2022-08-03T06:43:16.249Z,13.15
2022-08-03T06:46:19.292Z,15.90
2022-08-03T06:49:21.863Z,12.85
2022-08-03T06:52:37.576Z,12.43
2022-08-03T06:55:42.519Z,14.00
2022-08-03T06:58:45.116Z,15.98
2022-08-03T07:01:47.680Z,13.57
2022-08-03T07:04:50.367Z,16.20
2022-08-03T07:07:57.657Z,10.77
2022-08-03T07:11:00.118Z,11.88
2022-08-03T07:14:02.613Z,13.27
2022-08-03T07:17:11.674Z,12.23
2022-08-03T07:20:15.296Z,14.20
2022-08-03T07:23:18.963Z,16.40
2022-08-03T07:26:21.915Z,11.15
2022-08-03T07:29:24.403Z,10.35
2022-08-03T07:32:28.521Z,11.63
2022-08-03T07:35:30.932Z,11.32
2022-08-03T07:38:36.166Z,13.80
2022-08-03T07:41:38.668Z,16.48
2022-08-03T07:44:44.251Z,11.05
2022-08-03T07:47:53.519Z,10.53
2022-08-03T07:50:56.557Z,11.07
2022-08-03T07:54:00.794Z,12.23
2022-08-03T07:57:03.471Z,12.13
2022-08-03T08:00:11.649Z,14.70
2022-08-03T08:03:17.557Z,10.30
2022-08-03T08:06:20.030Z,11.85
2022-08-03T08:09:23.476Z,9.75
2022-08-03T08:12:25.890Z,12.30
2022-08-03T08:15:28.340Z,9.52
2022-08-03T08:18:31.686Z,9.43
2022-08-03T08:21:53.214Z,12.32
2022-08-03T08:24:56.404Z,9.38
2022-08-03T08:28:29.285Z,10.80
2022-08-03T08:31:26.782Z,10.90
2022-08-03T08:34:29.147Z,7.83
2022-08-03T08:37:35.451Z,11.00
2022-08-03T08:40:39.684Z,9.05
2022-08-03T08:43:43.074Z,9.98
2022-08-03T08:46:45.726Z,10.00
2022-08-03T08:50:08.949Z,9.30
2022-08-03T08:53:17.675Z,9.80
2022-08-03T08:56:25.791Z,9.35
2022-08-03T08:59:49.105Z,9.07
2022-08-03T09:02:51.177Z,8.30
2022-08-03T09:05:56.160Z,10.47
2022-08-03T09:08:58.919Z,10.63
2022-08-03T09:12:27.149Z,9.30
2022-08-03T09:15:24.975Z,7.00
2022-08-03T09:18:32.886Z,7.75
2022-08-03T09:21:35.613Z,7.33
2022-08-03T09:24:43.452Z,8.93
2022-08-03T09:27:47.152Z,9.57
2022-08-03T09:31:00.639Z,8.90
2022-08-03T09:34:05.982Z,9.55
2022-08-03T09:37:19.665Z,8.83
2022-08-03T09:40:36.313Z,8.65
2022-08-03T09:43:46.830Z,7.88
2022-08-03T09:46:51.457Z,10.20
2022-08-03T09:50:02.459Z,7.78
2022-08-03T09:53:05.299Z,10.23
2022-08-03T09:56:35.630Z,7.45
2022-08-03T09:59:31.942Z,9.85
2022-08-03T10:02:34.531Z,7.55
2022-08-03T10:05:38.370Z,8.55
2022-08-03T10:08:41.010Z,8.93
2022-08-03T10:11:46.808Z,7.43
2022-08-03T10:14:49.413Z,8.02
2022-08-03T10:17:51.778Z,7.85
2022-08-03T10:21:02.065Z,8.25
2022-08-03T10:24:06.924Z,8.40
2022-08-03T10:27:13.416Z,10.75
2022-08-03T10:30:17.188Z,8.30
2022-08-03T10:33:50.926Z,7.80
2022-08-03T10:36:45.692Z,16.92
2022-08-03T10:39:53.635Z,8.30
2022-08-03T10:43:02.048Z,7.20
2022-08-03T10:46:08.523Z,9.80
2022-08-03T10:49:34.544Z,8.20
2022-08-03T10:53:07.968Z,8.73
2022-08-03T10:56:50.684Z,8.60
2022-08-03T10:59:55.862Z,6.88
2022-08-03T11:03:06.937Z,11.35
2022-08-03T11:06:20.772Z,7.97
2022-08-03T11:09:23.168Z,7.78
2022-08-03T11:12:31.126Z,7.77
2022-08-03T11:15:35.865Z,8.70
2022-08-03T11:18:56.495Z,8.70
2022-08-03T11:21:59.266Z,8.07
2022-08-03T11:25:01.868Z,6.90
2022-08-03T11:28:29.170Z,8.27
2022-08-03T11:31:49.463Z,8.13
2022-08-03T11:35:17.340Z,8.55
2022-08-03T11:38:24.533Z,7.57
2022-08-03T11:41:43.369Z,8.77
2022-08-03T11:44:49.022Z,10.00
2022-08-03T11:47:55.403Z,7.72
2022-08-03T11:50:57.872Z,7.60
2022-08-03T11:54:05.908Z,7.88
2022-08-03T11:57:08.315Z,7.22
2022-08-03T12:00:25.865Z,7.87
2022-08-03T12:03:33.005Z,7.10
2022-08-03T12:06:54.778Z,8.52
2022-08-03T12:10:12.237Z,8.02
2022-08-03T12:14:08.836Z,8.93
2022-08-03T12:16:38.097Z,8.83
2022-08-03T12:19:44.093Z,7.47
2022-08-03T12:22:46.625Z,7.05
2022-08-03T12:25:49.582Z,10.23
2022-08-03T12:28:52.503Z,6.90
2022-08-03T12:31:55.932Z,6.60
2022-08-03T12:35:04.577Z,7.57
2022-08-03T12:38:07.489Z,8.68
2022-08-03T12:41:16.664Z,7.30
2022-08-03T12:44:28.993Z,7.63
2022-08-03T12:47:50.160Z,9.50
2022-08-03T12:50:53.723Z,8.60
2022-08-03T12:53:57.712Z,7.43
2022-08-03T12:57:08.417Z,10.80
2022-08-03T13:00:28.730Z,9.98
2022-08-03T13:03:49.738Z,8.50
2022-08-03T13:07:05.800Z,9.88
2022-08-03T13:10:10.855Z,7.53
2022-08-03T13:13:13.597Z,10.48
2022-08-03T13:16:19.303Z,8.00
2022-08-03T13:19:22.000Z,8.80
2022-08-03T13:22:29.075Z,8.18
2022-08-03T13:25:31.570Z,8.77
2022-08-03T13:28:34.120Z,11.30
2022-08-03T13:31:36.581Z,7.65
2022-08-03T13:34:53.099Z,8.23
2022-08-03T13:37:55.573Z,11.95
2022-08-03T13:41:00.788Z,8.40
2022-08-03T13:44:29.269Z,8.40
2022-08-03T13:47:30.003Z,7.20
2022-08-03T13:50:33.327Z,7.60
2022-08-03T13:53:35.844Z,7.63
2022-08-03T13:56:38.295Z,6.93
2022-08-03T13:59:40.748Z,9.07
2022-08-03T14:02:43.260Z,7.97
2022-08-03T14:05:45.944Z,9.40
2022-08-03T14:08:48.692Z,12.43
2022-08-03T14:12:07.620Z,7.30
2022-08-03T14:15:13.057Z,10.15
2022-08-03T14:18:28.871Z,8.90
2022-08-03T14:21:36.018Z,8.07
2022-08-03T14:24:38.429Z,9.32
2022-08-03T14:27:41.085Z,9.07
2022-08-03T14:30:44.531Z,10.40
2022-08-03T14:33:46.881Z,8.30
2022-08-03T14:36:49.266Z,9.00
2022-08-03T14:40:02.172Z,7.70
2022-08-03T14:43:04.733Z,8.95
2022-08-03T14:46:07.157Z,8.70
2022-08-03T14:50:36.874Z,11.73
2022-08-03T14:52:32.618Z,9.87
2022-08-03T14:55:38.974Z,11.10
2022-08-03T14:58:53.457Z,9.23
2022-08-03T15:02:02.175Z,8.13
2022-08-03T15:05:07.241Z,7.73
2022-08-03T15:08:09.737Z,8.67
2022-08-03T15:11:12.187Z,9.23
2022-08-03T15:14:15.001Z,10.45
2022-08-03T15:17:17.942Z,12.80
2022-08-03T15:20:39.561Z,22.92
2022-08-03T15:23:46.628Z,10.60
2022-08-03T15:26:50.504Z,9.38
2022-08-03T15:30:07.089Z,8.55
2022-08-03T15:33:13.068Z,7.70
2022-08-03T15:36:15.555Z,11.85
2022-08-03T15:39:17.948Z,8.97
2022-08-03T15:42:20.546Z,9.30
2022-08-03T15:45:27.881Z,7.82
2022-08-03T15:48:38.053Z,7.88
2022-08-03T15:51:40.671Z,9.15
2022-08-03T15:54:43.110Z,10.67
2022-08-03T15:59:09.885Z,9.30
2022-08-03T16:01:08.291Z,7.68
2022-08-03T16:04:10.776Z,7.72
2022-08-03T16:07:15.726Z,9.65
2022-08-03T16:10:18.860Z,10.70
2022-08-03T16:13:21.696Z,9.50
2022-08-03T16:16:44.102Z,9.00
2022-08-03T16:19:46.501Z,7.78
2022-08-03T16:22:49.059Z,9.23
2022-08-03T16:25:51.967Z,11.23
2022-08-03T16:28:55.095Z,10.68
2022-08-03T16:31:57.571Z,8.60
2022-08-03T16:35:01.216Z,9.32
2022-08-03T16:38:09.303Z,8.52
2022-08-03T16:41:12.106Z,9.50
2022-08-03T16:44:14.489Z,15.23
2022-08-03T16:47:22.320Z,11.48
2022-08-03T16:50:25.244Z,11.30
2022-08-03T16:53:51.767Z,9.10
2022-08-03T16:56:50.027Z,9.77
2022-08-03T16:59:52.536Z,8.18
2022-08-03T17:02:58.528Z,9.20
2022-08-03T17:06:01.766Z,10.60
2022-08-03T17:09:10.124Z,11.45
2022-08-03T17:12:13.576Z,10.17
2022-08-03T17:15:16.375Z,9.85
2022-08-03T17:18:21.803Z,14.02
2022-08-03T17:21:30.961Z,10.05
2022-08-03T17:24:40.912Z,12.43
2022-08-03T17:28:48.656Z,10.53
2022-08-03T17:31:23.517Z,8.05
2022-08-03T17:34:33.703Z,8.15
2022-08-03T17:37:58.263Z,8.25
2022-08-03T17:40:58.530Z,7.63
2022-08-03T17:44:15.590Z,8.40
2022-08-03T17:47:21.460Z,12.00
2022-08-03T17:50:28.960Z,9.20
2022-08-03T17:53:37.484Z,26.35
2022-08-03T17:57:21.730Z,12.68
2022-08-03T18:00:45.678Z,12.03
2022-08-03T18:03:58.490Z,10.07
2022-08-03T18:07:11.682Z,12.65
2022-08-03T18:10:25.741Z,10.80
2022-08-03T18:13:40.728Z,10.63
2022-08-03T18:16:57.737Z,9.83
2022-08-03T18:20:09.806Z,13.02
2022-08-03T18:23:24.881Z,18.50
2022-08-03T18:26:28.536Z,14.30
2022-08-03T18:29:31.177Z,14.40
2022-08-03T18:32:34.309Z,9.17
2022-08-03T18:35:53.955Z,9.73
2022-08-03T18:38:58.395Z,18.60
2022-08-03T18:42:02.768Z,16.60
2022-08-03T18:45:55.084Z,14.90
2022-08-03T18:48:47.517Z,12.50
2022-08-03T18:52:00.989Z,14.27
2022-08-03T18:55:20.875Z,12.60
2022-08-03T18:58:42.808Z,12.10
2022-08-03T19:02:00.826Z,15.40
2022-08-03T19:05:09.401Z,15.80
2022-08-03T19:08:17.082Z,14.02
2022-08-03T19:12:12.526Z,14.77
2022-08-03T19:15:12.973Z,11.90
2022-08-03T19:18:21.055Z,11.50
2022-08-03T19:21:26.128Z,12.77
2022-08-03T19:24:31.071Z,13.93
2022-08-03T19:27:35.161Z,11.77
2022-08-03T19:30:40.657Z,11.00
2022-08-03T19:33:56.192Z,14.38
2022-08-03T19:37:00.935Z,15.30
2022-08-03T19:40:05.591Z,15.85
2022-08-03T19:43:33.303Z,13.43
2022-08-03T19:46:57.826Z,9.13
2022-08-03T19:50:14.086Z,14.70
2022-08-03T19:53:17.431Z,11.10
2022-08-03T19:56:24.171Z,10.93
2022-08-03T19:59:27.556Z,13.23
2022-08-03T20:02:29.967Z,14.52
2022-08-03T20:05:45.174Z,10.77
2022-08-03T20:09:03.837Z,12.13
2022-08-03T20:12:11.659Z,13.10
2022-08-03T20:15:22.156Z,12.32
2022-08-03T20:18:39.163Z,12.50
2022-08-03T20:21:45.379Z,11.13
2022-08-03T20:24:53.017Z,9.57
2022-08-03T20:28:13.972Z,12.07
2022-08-03T20:31:17.763Z,9.68
2022-08-03T20:34:20.118Z,11.02
2022-08-03T20:37:22.545Z,10.77
2022-08-03T20:40:27.504Z,14.90
2022-08-03T20:43:30.222Z,12.82
2022-08-03T20:46:44.112Z,11.43
2022-08-03T20:49:56.910Z,10.07
2022-08-03T20:53:02.896Z,11.68
2022-08-03T20:56:09.687Z,12.00
2022-08-03T20:59:14.808Z,12.48
2022-08-03T21:02:19.167Z,13.98
2022-08-03T21:05:50.997Z,10.75
2022-08-03T21:09:04.082Z,15.45
2022-08-03T21:12:07.933Z,12.90
2022-08-03T21:16:01.147Z,10.98
2022-08-03T21:19:03.521Z,11.60
2022-08-03T21:22:08.569Z,10.90
2022-08-03T21:25:14.507Z,10.25
2022-08-03T21:28:27.364Z,15.57
2022-08-03T21:31:30.202Z,12.43
2022-08-03T21:34:35.401Z,11.70
2022-08-03T21:37:42.998Z,12.73
2022-08-03T21:40:47.414Z,14.32
2022-08-03T21:43:51.772Z,17.13
2022-08-03T21:46:55.406Z,14.18
2022-08-03T21:50:08.288Z,14.13
2022-08-03T21:53:12.316Z,15.43
2022-08-03T21:56:19.028Z,17.65
2022-08-03T21:59:23.306Z,18.73
2022-08-03T22:02:32.207Z,15.98
2022-08-03T22:05:43.538Z,22.98
2022-08-03T22:08:47.984Z,15.52
2022-08-03T22:11:54.060Z,16.73
2022-08-03T22:15:00.801Z,15.17
2022-08-03T22:18:04.871Z,16.60
2022-08-03T22:21:09.829Z,16.10
2022-08-03T22:24:13.146Z,12.25
2022-08-03T22:27:33.287Z,9.38
2022-08-03T22:30:36.252Z,12.20
2022-08-03T22:33:39.649Z,13.57
2022-08-03T22:36:42.710Z,12.35
2022-08-03T22:39:45.612Z,14.20
2022-08-03T22:42:52.459Z,13.80
2022-08-03T22:46:09.292Z,12.47
2022-08-03T22:49:15.264Z,17.90
2022-08-03T22:52:18.058Z,14.10
2022-08-03T22:55:24.921Z,14.57
2022-08-03T22:58:27.520Z,11.50
2022-08-03T23:01:35.379Z,16.63
2022-08-03T23:04:41.144Z,17.38
2022-08-03T23:07:45.640Z,16.17
2022-08-03T23:10:50.048Z,17.63
2022-08-03T23:13:55.499Z,13.00
2022-08-03T23:17:02.818Z,16.30
2022-08-03T23:20:07.826Z,15.43
2022-08-03T23:23:11.112Z,11.88
2022-08-03T23:26:13.831Z,19.52
2022-08-03T23:29:17.198Z,14.90
2022-08-03T23:32:25.563Z,16.53
2022-08-03T23:36:29.595Z,13.60
2022-08-03T23:39:09.280Z,13.75
2022-08-03T23:42:15.014Z,13.82
2022-08-03T23:45:20.750Z,12.38
2022-08-03T23:48:23.212Z,16.40
2022-08-03T23:52:10.043Z,14.23
2022-08-03T23:55:32.624Z,15.73
2022-08-03T23:58:53.085Z,12.77
